createdAt,value
2019-04-21T00:00:37.570Z,0.00
2019-04-21T00:01:42.030Z,0.00
2019-04-21T00:02:39.765Z,0.00
2019-04-21T00:03:45.388Z,0.00
2019-04-21T00:04:53.201Z,0.00
2019-04-21T00:05:58.723Z,0.00
2019-04-21T00:07:00.432Z,0.00
2019-04-21T00:07:59.228Z,0.00
2019-04-21T00:09:04.316Z,0.00
2019-04-21T00:09:59.929Z,0.00
2019-04-21T00:11:55.371Z,0.00
2019-04-21T00:12:53.382Z,0.00
2019-04-21T00:13:52.203Z,0.00
2019-04-21T00:14:46.141Z,0.00
2019-04-21T00:15:45.759Z,0.00
2019-04-21T00:16:46.637Z,0.00
2019-04-21T00:17:37.133Z,0.00
2019-04-21T00:18:47.909Z,0.00
2019-04-21T00:19:39.075Z,0.00
2019-04-21T00:20:43.980Z,0.00
2019-04-21T00:21:44.916Z,0.00
2019-04-21T00:22:47.745Z,0.00
2019-04-21T00:23:54.037Z,0.00
2019-04-21T00:24:49.735Z,0.00
2019-04-21T00:25:50.083Z,0.00
2019-04-21T00:26:57.490Z,0.00
2019-04-21T00:27:50.374Z,0.00
2019-04-21T00:29:03.929Z,0.00
2019-04-21T00:29:59.314Z,0.00
2019-04-21T00:30:59.274Z,0.00
2019-04-21T00:31:51.600Z,0.00
2019-04-21T00:32:50.269Z,0.00
2019-04-21T00:33:41.000Z,0.00
2019-04-21T00:34:43.280Z,0.00
2019-04-21T00:35:45.303Z,0.00
2019-04-21T00:36:47.068Z,0.00
2019-04-21T00:37:53.209Z,0.00
2019-04-21T00:39:09.920Z,0.00
2019-04-21T00:40:01.952Z,0.00
2019-04-21T00:41:00.027Z,0.00
2019-04-21T00:42:55.869Z,0.00
2019-04-21T00:43:49.090Z,0.00
2019-04-21T00:44:51.967Z,0.00
2019-04-21T00:45:50.879Z,0.00
2019-04-21T00:46:51.627Z,0.00
2019-04-21T00:48:00.902Z,0.00
2019-04-21T00:48:57.433Z,0.00
2019-04-21T00:50:01.950Z,0.00
2019-04-21T00:51:15.069Z,0.00
2019-04-21T00:52:06.087Z,0.00
2019-04-21T00:53:10.454Z,0.00
2019-04-21T00:54:05.766Z,0.00
2019-04-21T00:55:07.748Z,0.00
2019-04-21T00:56:03.550Z,0.00
2019-04-21T00:57:09.237Z,0.00
2019-04-21T00:58:06.876Z,0.00
2019-04-21T00:58:59.741Z,0.00
2019-04-21T01:00:00.791Z,0.00
2019-04-21T01:00:58.041Z,0.00
2019-04-21T01:01:53.867Z,0.00
2019-04-21T01:03:14.786Z,0.00
2019-04-21T01:03:57.792Z,0.00
2019-04-21T01:05:01.649Z,0.00
2019-04-21T01:05:57.318Z,0.00
2019-04-21T01:07:05.034Z,0.00
2019-04-21T01:07:50.756Z,0.00
2019-04-21T01:08:59.075Z,0.00
2019-04-21T01:09:48.838Z,0.00
2019-04-21T01:10:51.620Z,0.00
2019-04-21T01:12:03.673Z,0.00
2019-04-21T01:12:54.669Z,0.00
2019-04-21T01:14:00.643Z,0.00
2019-04-21T01:15:04.724Z,0.00
2019-04-21T01:15:59.488Z,0.00
2019-04-21T01:16:57.379Z,0.00
2019-04-21T01:17:59.043Z,0.00
2019-04-21T01:18:54.822Z,0.00
2019-04-21T01:19:51.203Z,0.00
2019-04-21T01:20:35.760Z,0.00
2019-04-21T01:21:35.738Z,0.00
2019-04-21T01:22:35.723Z,0.00
2019-04-21T01:23:35.868Z,0.00
2019-04-21T01:24:40.200Z,0.00
2019-04-21T01:25:43.709Z,0.00
2019-04-21T01:26:48.481Z,0.00
2019-04-21T01:28:06.362Z,0.00
2019-04-21T01:28:52.470Z,0.00
2019-04-21T01:29:54.930Z,0.00
2019-04-21T01:30:57.109Z,0.00
2019-04-21T01:32:03.677Z,0.00
2019-04-21T01:32:57.604Z,0.00
2019-04-21T01:33:56.205Z,0.00
2019-04-21T01:34:58.198Z,0.00
2019-04-21T01:35:55.245Z,0.00
2019-04-21T01:36:55.753Z,0.00
2019-04-21T01:37:55.809Z,0.00
2019-04-21T01:39:01.698Z,0.00
2019-04-21T01:40:04.686Z,0.00
2019-04-21T01:40:59.118Z,0.00
2019-04-21T01:41:57.425Z,0.00
2019-04-21T01:42:55.745Z,0.00
2019-04-21T01:43:54.558Z,0.00
2019-04-21T01:44:53.435Z,0.00
2019-04-21T01:45:53.592Z,0.00
2019-04-21T01:46:51.981Z,0.00
2019-04-21T01:47:51.091Z,0.00
2019-04-21T01:48:51.788Z,0.00
2019-04-21T01:49:47.540Z,0.00
2019-04-21T01:50:51.102Z,0.00
2019-04-21T01:52:02.787Z,0.00
2019-04-21T01:52:58.949Z,0.00
2019-04-21T01:54:01.387Z,0.00
2019-04-21T01:54:55.913Z,0.00
2019-04-21T01:55:54.796Z,0.00
2019-04-21T01:56:56.987Z,0.00
2019-04-21T01:57:54.048Z,0.00
2019-04-21T01:58:46.464Z,0.00
2019-04-21T01:59:47.531Z,0.00
2019-04-21T02:00:51.936Z,0.00
2019-04-21T02:01:53.183Z,0.00
2019-04-21T02:02:59.391Z,0.00
2019-04-21T02:03:57.025Z,0.00
2019-04-21T02:05:03.174Z,0.00
2019-04-21T02:06:01.656Z,0.00
2019-04-21T02:06:57.331Z,0.00
2019-04-21T02:07:55.931Z,0.00
2019-04-21T02:08:56.289Z,0.00
2019-04-21T02:10:00.468Z,0.00
2019-04-21T02:11:00.597Z,0.00
2019-04-21T02:11:56.433Z,0.00
2019-04-21T02:12:56.709Z,0.00
2019-04-21T02:14:58.172Z,0.00
2019-04-21T02:16:02.054Z,0.00
2019-04-21T02:16:54.057Z,0.00
2019-04-21T02:18:54.397Z,0.00
2019-04-21T02:19:53.207Z,0.00
2019-04-21T02:20:47.609Z,0.00
2019-04-21T02:21:47.242Z,0.00
2019-04-21T02:23:12.902Z,0.00
2019-04-21T02:23:59.037Z,0.00
2019-04-21T02:25:57.794Z,0.00
2019-04-21T02:27:01.713Z,0.00
2019-04-21T02:27:57.518Z,0.00
2019-04-21T02:29:01.861Z,0.00
2019-04-21T02:29:59.830Z,0.00
2019-04-21T02:31:13.670Z,0.00
2019-04-21T02:33:34.483Z,0.00
2019-04-21T02:36:27.466Z,0.00
2019-04-21T02:37:21.408Z,0.00
2019-04-21T02:39:16.510Z,0.00
2019-04-21T02:40:59.555Z,0.00
2019-04-21T02:42:05.399Z,0.00
2019-04-21T02:43:11.494Z,0.00
2019-04-21T02:46:04.446Z,0.00
2019-04-21T02:47:14.603Z,0.00
2019-04-21T02:48:19.327Z,0.00
2019-04-21T02:49:06.267Z,0.00
2019-04-21T02:50:57.704Z,0.00
2019-04-21T02:54:32.210Z,0.00
2019-04-21T02:55:15.315Z,0.00
2019-04-21T02:57:08.592Z,0.00
2019-04-21T02:58:06.320Z,0.00
2019-04-21T03:00:10.186Z,0.00
2019-04-21T03:01:03.347Z,0.00
2019-04-21T03:02:09.630Z,0.00
2019-04-21T03:03:09.164Z,0.00
2019-04-21T03:04:00.381Z,0.00
2019-04-21T03:05:13.409Z,0.00
2019-04-21T03:06:21.071Z,0.00
2019-04-21T03:07:09.749Z,0.00
2019-04-21T03:08:28.067Z,0.00
2019-04-21T03:09:10.964Z,0.00
2019-04-21T03:10:00.112Z,0.00
2019-04-21T03:12:11.292Z,0.00
2019-04-21T03:13:08.878Z,0.00
2019-04-21T03:16:11.876Z,0.00
2019-04-21T03:17:05.591Z,0.00
2019-04-21T03:18:04.485Z,0.00
2019-04-21T03:19:06.769Z,0.00
2019-04-21T03:22:14.493Z,0.00
2019-04-21T03:23:07.775Z,0.00
2019-04-21T03:24:13.396Z,0.00
2019-04-21T03:26:12.408Z,0.00
2019-04-21T03:27:17.212Z,0.00
2019-04-21T03:28:04.944Z,0.00
2019-04-21T03:29:02.458Z,0.00
2019-04-21T03:30:38.679Z,0.00
2019-04-21T03:38:03.022Z,0.00
2019-04-21T03:39:18.008Z,0.00
2019-04-21T03:40:05.170Z,0.00
2019-04-21T03:41:04.189Z,0.00
2019-04-21T03:42:09.087Z,0.00
2019-04-21T03:43:04.497Z,0.00
2019-04-21T03:45:03.652Z,0.00
2019-04-21T03:46:02.114Z,0.00
2019-04-21T03:47:09.247Z,0.00
2019-04-21T03:48:01.055Z,4.00
2019-04-21T03:51:04.257Z,4.00
2019-04-21T03:52:11.927Z,4.00
2019-04-21T03:53:03.439Z,4.00
2019-04-21T03:54:04.960Z,4.00
2019-04-21T03:55:12.455Z,4.00
2019-04-21T03:58:23.947Z,0.00
2019-04-21T03:59:13.652Z,4.00
2019-04-21T04:00:09.101Z,4.00
2019-04-21T04:01:05.421Z,4.00
2019-04-21T04:02:06.549Z,4.00
2019-04-21T04:05:03.702Z,8.00
2019-04-21T04:07:18.641Z,8.00
2019-04-21T04:08:08.331Z,12.00
2019-04-21T04:11:12.507Z,12.00
2019-04-21T04:12:04.731Z,16.00
2019-04-21T04:13:15.692Z,20.00
2019-04-21T04:14:16.182Z,20.00
2019-04-21T04:15:03.031Z,28.00
2019-04-21T04:16:06.600Z,32.00
2019-04-21T04:17:14.410Z,36.00
2019-04-21T04:18:28.000Z,40.00
2019-04-21T04:18:57.684Z,48.00
2019-04-21T04:20:24.085Z,56.00
2019-04-21T04:21:20.630Z,64.00
2019-04-21T04:23:02.790Z,80.00
2019-04-21T04:25:04.618Z,104.00
2019-04-21T04:27:07.874Z,136.00
2019-04-21T04:30:07.554Z,180.00
2019-04-21T04:31:08.145Z,200.00
2019-04-21T04:31:55.475Z,224.00
2019-04-21T04:33:03.325Z,244.00
2019-04-21T04:37:05.653Z,352.00
2019-04-21T04:38:07.038Z,380.00
2019-04-21T04:39:23.252Z,400.00
2019-04-21T04:41:06.246Z,444.00
2019-04-21T04:42:21.654Z,468.00
2019-04-21T04:43:07.941Z,492.00
2019-04-21T04:44:12.358Z,512.00
2019-04-21T04:46:02.644Z,552.00
2019-04-21T04:49:12.791Z,608.00
2019-04-21T04:51:14.477Z,636.00
2019-04-21T04:52:56.921Z,684.00
2019-04-21T04:53:53.067Z,720.00
2019-04-21T04:56:03.681Z,792.00
2019-04-21T04:57:08.048Z,820.00
2019-04-21T05:00:15.712Z,936.00
2019-04-21T05:01:21.523Z,980.00
2019-04-21T05:02:12.938Z,1024.00
2019-04-21T05:03:06.676Z,1068.00
2019-04-21T05:04:13.355Z,1120.00
2019-04-21T05:06:10.518Z,1228.00
2019-04-21T05:07:11.862Z,1284.00
2019-04-21T05:08:19.759Z,1340.00
2019-04-21T05:09:15.421Z,1388.00
2019-04-21T05:11:07.738Z,1492.00
2019-04-21T05:11:57.329Z,1552.00
2019-04-21T05:13:02.326Z,1596.00
2019-04-21T05:15:04.528Z,1672.00
2019-04-21T05:16:06.065Z,1720.00
2019-04-21T05:17:02.312Z,1744.00
2019-04-21T05:18:02.878Z,1776.00
2019-04-21T05:21:09.096Z,1880.00
2019-04-21T05:21:57.229Z,1928.00
2019-04-21T05:22:56.098Z,1976.00
2019-04-21T05:23:54.010Z,2024.00
2019-04-21T05:24:51.042Z,2064.00
2019-04-21T05:25:48.064Z,2108.00
2019-04-21T05:26:51.939Z,2176.00
2019-04-21T05:27:49.724Z,2260.00
2019-04-21T05:28:44.682Z,2336.00
2019-04-21T05:29:55.722Z,2408.00
2019-04-21T05:30:55.452Z,2472.00
2019-04-21T05:32:07.918Z,2556.00
2019-04-21T05:32:55.552Z,2624.00
2019-04-21T05:33:56.419Z,2680.00
2019-04-21T05:34:54.279Z,2712.00
2019-04-21T05:35:48.934Z,2748.00
2019-04-21T05:36:52.396Z,2772.00
2019-04-21T05:37:47.274Z,2808.00
2019-04-21T05:38:50.555Z,2840.00
2019-04-21T05:39:51.120Z,2876.00
2019-04-21T05:40:43.821Z,2916.00
2019-04-21T05:41:38.591Z,2964.00
2019-04-21T05:42:45.524Z,3008.00
2019-04-21T05:43:51.705Z,3052.00
2019-04-21T05:45:01.676Z,3088.00
2019-04-21T05:45:54.916Z,3120.00
2019-04-21T05:47:00.979Z,3144.00
2019-04-21T05:47:55.897Z,3184.00
2019-04-21T05:48:52.130Z,3224.00
2019-04-21T05:49:49.799Z,3268.00
2019-04-21T05:50:49.325Z,3320.00
2019-04-21T05:51:44.104Z,3380.00
2019-04-21T05:52:44.679Z,3452.00
2019-04-21T05:53:56.068Z,3520.00
2019-04-21T05:54:56.991Z,3588.00
2019-04-21T05:56:48.745Z,3704.00
2019-04-21T05:57:46.614Z,3760.00
2019-04-21T05:58:48.460Z,3812.00
2019-04-21T05:59:51.603Z,3844.00
2019-04-21T06:01:06.343Z,3868.00
2019-04-21T06:02:02.113Z,3904.00
2019-04-21T06:03:00.665Z,3944.00
2019-04-21T06:06:00.769Z,4020.00
2019-04-21T06:07:00.351Z,4064.00
2019-04-21T06:07:54.802Z,4112.00
2019-04-21T06:08:49.890Z,4160.00
2019-04-21T06:09:56.412Z,4204.00
2019-04-21T06:10:52.451Z,4232.00
2019-04-21T06:11:50.769Z,4276.00
2019-04-21T06:12:52.440Z,4340.00
2019-04-21T06:13:54.946Z,4432.00
2019-04-21T06:14:54.110Z,4524.00
2019-04-21T06:16:09.668Z,4576.00
2019-04-21T06:16:55.563Z,4624.00
2019-04-21T06:17:55.018Z,4652.00
2019-04-21T06:18:55.999Z,4708.00
2019-04-21T06:19:57.165Z,4804.00
2019-04-21T06:20:57.981Z,4860.00
2019-04-21T06:21:52.244Z,4888.00
2019-04-21T06:23:50.188Z,4860.00
2019-04-21T06:27:04.944Z,4944.00
2019-04-21T06:27:51.090Z,4956.00
2019-04-21T06:29:04.185Z,4984.00
2019-04-21T06:30:59.439Z,5100.00
2019-04-21T06:32:17.731Z,5172.00
2019-04-21T06:33:50.484Z,5304.00
2019-04-21T06:36:12.287Z,5456.00
2019-04-21T06:37:49.232Z,5632.00
2019-04-21T06:39:12.138Z,5712.00
2019-04-21T06:41:00.423Z,5860.00
2019-04-21T06:41:48.128Z,5932.00
2019-04-21T06:43:05.772Z,6012.00
2019-04-21T06:43:56.867Z,6080.00
2019-04-21T06:45:54.387Z,6220.00
2019-04-21T06:46:48.998Z,6252.00
2019-04-21T06:47:57.498Z,6324.00
2019-04-21T06:48:57.065Z,6404.00
2019-04-21T06:49:50.986Z,6468.00
2019-04-21T06:50:52.911Z,6528.00
2019-04-21T06:51:49.800Z,6544.00
2019-04-21T06:53:59.065Z,6552.00
2019-04-21T06:54:57.114Z,6568.00
2019-04-21T06:55:52.068Z,6636.00
2019-04-21T06:57:00.898Z,6712.00
2019-04-21T06:57:54.323Z,6784.00
2019-04-21T06:58:42.951Z,6800.00
2019-04-21T06:59:46.559Z,6784.00
2019-04-21T07:00:50.940Z,6832.00
2019-04-21T07:02:06.904Z,6884.00
2019-04-21T07:03:17.117Z,6920.00
2019-04-21T07:04:01.763Z,6944.00
2019-04-21T07:06:01.392Z,6972.00
2019-04-21T07:08:11.378Z,6968.00
2019-04-21T07:09:52.731Z,6960.00
2019-04-21T07:10:51.801Z,6960.00
2019-04-21T07:11:53.821Z,6952.00
2019-04-21T07:12:45.066Z,6956.00
2019-04-21T07:13:50.978Z,6976.00
2019-04-21T07:14:48.180Z,6996.00
2019-04-21T07:15:53.913Z,7008.00
2019-04-21T07:16:56.370Z,7032.00
2019-04-21T07:17:54.185Z,7052.00
2019-04-21T07:18:59.812Z,7072.00
2019-04-21T07:20:07.144Z,7108.00
2019-04-21T07:20:49.009Z,7132.00
2019-04-21T07:21:52.531Z,7164.00
2019-04-21T07:22:47.784Z,7200.00
2019-04-21T07:23:53.894Z,7240.00
2019-04-21T07:24:47.974Z,7284.00
2019-04-21T07:25:51.444Z,7344.00
2019-04-21T07:26:51.067Z,7408.00
2019-04-21T07:27:52.652Z,7480.00
2019-04-21T07:28:56.843Z,7536.00
2019-04-21T07:29:55.618Z,7600.00
2019-04-21T07:30:56.961Z,7656.00
2019-04-21T07:31:59.254Z,7716.00
2019-04-21T07:32:55.299Z,7776.00
2019-04-21T07:34:51.414Z,7908.00
2019-04-21T07:35:51.676Z,7968.00
2019-04-21T07:37:51.171Z,8020.00
2019-04-21T07:38:45.844Z,8028.00
2019-04-21T07:39:45.092Z,8040.00
2019-04-21T07:40:43.146Z,8048.00
2019-04-21T07:41:44.062Z,8060.00
2019-04-21T07:42:44.108Z,8072.00
2019-04-21T07:43:44.049Z,8088.00
2019-04-21T07:44:40.864Z,8120.00
2019-04-21T07:45:40.105Z,8140.00
2019-04-21T07:46:41.707Z,8164.00
2019-04-21T07:47:49.297Z,8180.00
2019-04-21T07:48:54.202Z,8228.00
2019-04-21T07:49:53.528Z,8264.00
2019-04-21T07:50:46.922Z,8300.00
2019-04-21T07:51:55.145Z,8348.00
2019-04-21T07:52:55.262Z,8392.00
2019-04-21T07:53:55.680Z,8444.00
2019-04-21T07:54:57.183Z,8500.00
2019-04-21T07:56:34.924Z,8624.00
2019-04-21T07:57:39.730Z,8680.00
2019-04-21T07:58:53.452Z,8744.00
2019-04-21T08:00:04.033Z,8804.00
2019-04-21T08:00:51.200Z,8896.00
2019-04-21T08:01:49.806Z,8984.00
2019-04-21T08:02:49.721Z,9076.00
2019-04-21T08:03:50.730Z,9192.00
2019-04-21T08:05:08.465Z,9300.00
2019-04-21T08:05:51.407Z,9420.00
2019-04-21T08:06:46.048Z,9528.00
2019-04-21T08:07:52.144Z,9612.00
2019-04-21T08:08:51.083Z,9684.00
2019-04-21T08:09:47.292Z,9736.00
2019-04-21T08:10:44.279Z,9772.00
2019-04-21T08:11:44.221Z,9780.00
2019-04-21T08:12:42.040Z,9816.00
2019-04-21T08:13:50.313Z,9864.00
2019-04-21T08:14:50.829Z,9924.00
2019-04-21T08:15:48.778Z,9996.00
2019-04-21T08:16:56.016Z,10060.00
2019-04-21T08:17:48.506Z,10096.00
2019-04-21T08:18:50.207Z,10116.00
2019-04-21T08:19:44.617Z,10136.00
2019-04-21T08:20:46.301Z,10184.00
2019-04-21T08:21:49.679Z,10224.00
2019-04-21T08:23:43.543Z,10168.00
2019-04-21T08:24:50.838Z,10112.00
2019-04-21T08:25:53.495Z,10060.00
2019-04-21T08:27:04.980Z,10000.00
2019-04-21T08:27:54.011Z,9932.00
2019-04-21T08:28:49.478Z,9888.00
2019-04-21T08:29:47.605Z,9864.00
2019-04-21T08:30:43.065Z,9816.00
2019-04-21T08:32:08.079Z,9800.00
2019-04-21T08:34:54.905Z,9896.00
2019-04-21T08:36:07.680Z,9940.00
2019-04-21T08:36:44.910Z,10036.00
2019-04-21T08:37:46.364Z,10164.00
2019-04-21T08:38:51.563Z,10112.00
2019-04-21T08:39:59.425Z,10064.00
2019-04-21T08:40:47.004Z,10016.00
2019-04-21T08:41:46.934Z,10060.00
2019-04-21T08:42:49.479Z,10084.00
2019-04-21T08:43:45.603Z,10004.00
2019-04-21T08:44:50.422Z,10028.00
2019-04-21T08:45:49.396Z,10056.00
2019-04-21T08:46:48.525Z,10120.00
2019-04-21T08:47:45.779Z,10056.00
2019-04-21T08:48:43.930Z,10020.00
2019-04-21T08:49:49.155Z,9804.00
2019-04-21T08:50:44.149Z,9744.00
2019-04-21T08:51:48.521Z,9952.00
2019-04-21T08:52:50.895Z,10244.00
2019-04-21T08:54:08.003Z,10144.00
2019-04-21T08:54:52.639Z,10080.00
2019-04-21T08:55:49.261Z,9940.00
2019-04-21T08:56:49.588Z,9728.00
2019-04-21T08:57:56.058Z,9612.00
2019-04-21T08:58:52.522Z,9604.00
2019-04-21T08:59:47.060Z,9632.00
2019-04-21T09:00:46.882Z,9640.00
2019-04-21T09:01:47.420Z,9628.00
2019-04-21T09:02:53.815Z,9516.00
2019-04-21T09:03:44.638Z,9528.00
2019-04-21T09:04:46.313Z,9408.00
2019-04-21T09:05:42.628Z,9520.00
2019-04-21T09:07:05.140Z,9608.00
2019-04-21T09:07:47.506Z,9648.00
2019-04-21T09:08:45.770Z,9656.00
2019-04-21T09:09:46.784Z,9684.00
2019-04-21T09:10:39.898Z,9764.00
2019-04-21T09:11:45.936Z,9808.00
2019-04-21T09:12:43.118Z,9860.00
2019-04-21T09:13:42.998Z,9988.00
2019-04-21T09:14:41.866Z,10088.00
2019-04-21T09:15:44.837Z,10196.00
2019-04-21T09:16:43.742Z,10256.00
2019-04-21T09:17:36.750Z,10212.00
2019-04-21T09:18:39.511Z,10120.00
2019-04-21T09:19:51.029Z,9976.00
2019-04-21T09:20:46.136Z,9900.00
2019-04-21T09:21:43.729Z,9896.00
2019-04-21T09:22:41.574Z,9904.00
2019-04-21T09:23:45.349Z,9880.00
2019-04-21T09:24:48.244Z,9848.00
2019-04-21T09:25:46.241Z,9804.00
2019-04-21T09:26:42.882Z,9756.00
2019-04-21T09:27:39.481Z,9740.00
2019-04-21T09:28:39.532Z,9716.00
2019-04-21T09:29:32.429Z,9684.00
2019-04-21T09:30:26.237Z,9640.00
2019-04-21T09:31:30.944Z,9612.00
2019-04-21T09:32:27.640Z,9580.00
2019-04-21T09:33:33.475Z,9564.00
2019-04-21T09:34:32.621Z,9568.00
2019-04-21T09:35:24.843Z,9564.00
2019-04-21T09:36:33.638Z,9548.00
2019-04-21T09:37:32.763Z,9524.00
2019-04-21T09:38:33.946Z,9484.00
2019-04-21T09:39:28.124Z,9464.00
2019-04-21T09:40:30.218Z,9452.00
2019-04-21T09:41:27.406Z,9464.00
2019-04-21T09:42:33.302Z,9488.00
2019-04-21T09:43:34.290Z,9484.00
2019-04-21T09:44:30.857Z,9488.00
2019-04-21T09:45:24.653Z,9496.00
2019-04-21T09:46:25.436Z,9488.00
2019-04-21T09:47:34.164Z,9484.00
2019-04-21T09:48:26.297Z,9488.00
2019-04-21T09:49:27.894Z,9500.00
2019-04-21T09:50:24.557Z,9512.00
2019-04-21T09:51:25.614Z,9512.00
2019-04-21T09:52:31.005Z,9528.00
2019-04-21T09:53:31.220Z,9568.00
2019-04-21T09:54:29.822Z,9572.00
2019-04-21T09:55:31.760Z,9580.00
2019-04-21T09:56:37.439Z,9584.00
2019-04-21T09:57:36.639Z,9568.00
2019-04-21T09:58:32.920Z,9540.00
2019-04-21T09:59:31.374Z,9580.00
2019-04-21T10:00:28.716Z,9624.00
2019-04-21T10:01:29.880Z,9672.00
2019-04-21T10:02:35.643Z,9696.00
2019-04-21T10:03:24.307Z,9716.00
2019-04-21T10:04:24.293Z,9752.00
2019-04-21T10:05:25.174Z,9744.00
2019-04-21T10:06:24.253Z,9708.00
2019-04-21T10:07:31.845Z,9720.00
2019-04-21T10:08:24.986Z,9736.00
2019-04-21T10:09:24.359Z,9720.00
2019-04-21T10:10:25.273Z,9720.00
2019-04-21T10:11:24.559Z,9696.00
2019-04-21T10:12:24.137Z,9704.00
2019-04-21T10:13:25.252Z,9716.00
2019-04-21T10:14:24.376Z,9732.00
2019-04-21T10:15:25.480Z,9768.00
2019-04-21T10:16:26.096Z,9760.00
2019-04-21T10:17:24.077Z,9724.00
2019-04-21T10:18:25.116Z,9720.00
2019-04-21T10:19:25.362Z,9720.00
2019-04-21T10:20:24.524Z,9708.00
2019-04-21T10:21:26.052Z,9728.00
2019-04-21T10:22:23.953Z,9752.00
2019-04-21T10:23:23.930Z,9768.00
2019-04-21T10:24:24.489Z,9772.00
2019-04-21T10:25:25.059Z,9780.00
2019-04-21T10:26:24.365Z,9808.00
2019-04-21T10:27:25.245Z,9828.00
2019-04-21T10:28:25.074Z,9856.00
2019-04-21T10:29:26.358Z,9896.00
2019-04-21T10:30:24.620Z,9924.00
2019-04-21T10:31:24.830Z,9952.00
2019-04-21T10:32:25.362Z,10000.00
2019-04-21T10:33:24.197Z,10024.00
2019-04-21T10:34:23.728Z,10052.00
2019-04-21T10:35:25.032Z,10068.00
2019-04-21T10:36:24.601Z,10092.00
2019-04-21T10:37:35.406Z,10128.00
2019-04-21T10:38:34.297Z,10152.00
2019-04-21T10:39:23.953Z,10184.00
2019-04-21T10:40:23.616Z,10232.00
2019-04-21T10:41:23.599Z,10280.00
2019-04-21T10:42:23.807Z,10332.00
2019-04-21T10:43:24.369Z,10388.00
2019-04-21T10:44:23.543Z,10444.00
2019-04-21T10:45:23.525Z,10500.00
2019-04-21T10:46:24.605Z,10540.00
2019-04-21T10:47:24.716Z,10588.00
2019-04-21T10:48:23.471Z,10632.00
2019-04-21T10:49:24.462Z,10688.00
2019-04-21T10:50:24.466Z,10736.00
2019-04-21T10:51:23.416Z,10784.00
2019-04-21T10:52:24.532Z,10836.00
2019-04-21T10:53:23.381Z,10888.00
2019-04-21T10:54:24.146Z,10924.00
2019-04-21T10:55:41.870Z,10988.00
2019-04-21T10:56:30.688Z,11040.00
2019-04-21T10:57:24.198Z,11088.00
2019-04-21T10:58:24.558Z,11136.00
2019-04-21T10:59:25.025Z,11188.00
2019-04-21T11:00:24.018Z,11256.00
2019-04-21T11:01:25.168Z,11320.00
2019-04-21T11:02:23.228Z,11384.00
2019-04-21T11:03:24.754Z,11448.00
2019-04-21T11:04:27.835Z,11500.00
2019-04-21T11:05:23.168Z,11556.00
2019-04-21T11:06:24.479Z,11608.00
2019-04-21T11:07:27.513Z,11636.00
2019-04-21T11:08:30.245Z,11696.00
2019-04-21T11:09:24.131Z,11752.00
2019-04-21T11:10:23.086Z,11788.00
2019-04-21T11:11:23.900Z,11796.00
2019-04-21T11:12:25.806Z,11832.00
2019-04-21T11:13:23.065Z,11852.00
2019-04-21T11:14:23.188Z,11880.00
2019-04-21T11:15:23.362Z,11912.00
2019-04-21T11:16:23.531Z,11952.00
2019-04-21T11:17:23.950Z,11980.00
2019-04-21T11:18:23.969Z,12040.00
2019-04-21T11:19:24.151Z,12080.00
2019-04-21T11:20:22.917Z,12104.00
2019-04-21T11:21:23.002Z,12120.00
2019-04-21T11:22:23.092Z,12136.00
2019-04-21T11:23:22.856Z,12148.00
2019-04-21T11:24:23.096Z,12196.00
2019-04-21T11:25:24.162Z,12232.00
2019-04-21T11:26:24.156Z,12264.00
2019-04-21T11:27:22.789Z,12276.00
2019-04-21T11:28:22.968Z,12300.00
2019-04-21T11:29:23.297Z,12332.00
2019-04-21T11:30:23.362Z,12336.00
2019-04-21T11:31:22.983Z,12344.00
2019-04-21T11:32:23.151Z,12360.00
2019-04-21T11:33:22.851Z,12372.00
2019-04-21T11:34:23.074Z,12396.00
2019-04-21T11:35:23.376Z,12416.00
2019-04-21T11:36:22.634Z,12436.00
2019-04-21T11:37:24.019Z,12444.00
2019-04-21T11:38:26.626Z,12440.00
2019-04-21T11:39:35.319Z,12432.00
2019-04-21T11:40:23.919Z,12420.00
2019-04-21T11:41:23.832Z,12432.00
2019-04-21T11:42:23.723Z,12456.00
2019-04-21T11:43:23.927Z,12468.00
2019-04-21T11:44:24.668Z,12488.00
2019-04-21T11:45:24.313Z,12504.00
2019-04-21T11:46:22.655Z,12536.00
2019-04-21T11:47:22.740Z,12560.00
2019-04-21T11:48:22.432Z,12584.00
2019-04-21T11:49:22.424Z,12612.00
2019-04-21T11:50:23.258Z,12636.00
2019-04-21T11:51:22.791Z,12656.00
2019-04-21T11:52:22.866Z,12676.00
2019-04-21T11:53:23.153Z,12712.00
2019-04-21T11:54:22.614Z,12752.00
2019-04-21T11:55:22.925Z,12836.00
2019-04-21T11:56:23.058Z,12920.00
2019-04-21T11:57:27.847Z,12928.00
2019-04-21T11:58:23.354Z,12952.00
2019-04-21T11:59:22.250Z,13004.00
2019-04-21T12:00:22.236Z,13104.00
2019-04-21T12:01:23.394Z,13172.00
2019-04-21T12:02:23.474Z,13212.00
2019-04-21T12:03:22.241Z,13352.00
2019-04-21T12:04:23.466Z,13392.00
2019-04-21T12:05:23.519Z,13508.00
2019-04-21T12:06:28.964Z,13568.00
2019-04-21T12:07:22.941Z,13660.00
2019-04-21T12:08:29.999Z,13780.00
2019-04-21T12:09:23.094Z,13920.00
2019-04-21T12:10:22.085Z,14012.00
2019-04-21T12:11:22.938Z,14076.00
2019-04-21T12:12:23.205Z,14132.00
2019-04-21T12:13:22.352Z,14144.00
2019-04-21T12:14:22.009Z,14120.00
2019-04-21T12:15:22.921Z,14172.00
2019-04-21T12:16:23.371Z,13996.00
2019-04-21T12:17:21.964Z,14044.00
2019-04-21T12:18:23.637Z,14152.00
2019-04-21T12:19:22.881Z,14160.00
2019-04-21T12:20:21.913Z,14252.00
2019-04-21T12:21:23.248Z,14276.00
2019-04-21T12:22:25.514Z,14352.00
2019-04-21T12:23:22.664Z,14236.00
2019-04-21T12:24:21.850Z,14192.00
2019-04-21T12:25:22.939Z,14068.00
2019-04-21T12:26:22.123Z,13996.00
2019-04-21T12:27:22.297Z,13864.00
2019-04-21T12:28:21.981Z,13780.00
2019-04-21T12:29:22.791Z,13712.00
2019-04-21T12:30:21.869Z,13648.00
2019-04-21T12:31:21.742Z,13580.00
2019-04-21T12:32:22.213Z,13440.00
2019-04-21T12:33:22.334Z,13380.00
2019-04-21T12:34:21.900Z,13308.00
2019-04-21T12:35:21.874Z,13136.00
2019-04-21T12:36:21.994Z,13028.00
2019-04-21T12:37:26.859Z,12932.00
2019-04-21T12:38:33.338Z,12908.00
2019-04-21T12:39:22.909Z,12876.00
2019-04-21T12:40:21.605Z,12844.00
2019-04-21T12:41:22.587Z,12796.00
2019-04-21T12:42:22.800Z,12764.00
2019-04-21T12:43:21.560Z,12760.00
2019-04-21T12:44:22.591Z,12796.00
2019-04-21T12:45:22.079Z,12832.00
2019-04-21T12:46:22.108Z,12888.00
2019-04-21T12:47:21.779Z,12936.00
2019-04-21T12:48:22.144Z,12976.00
2019-04-21T12:49:22.066Z,13028.00
2019-04-21T12:50:21.586Z,13112.00
2019-04-21T12:51:21.934Z,13188.00
2019-04-21T12:52:21.849Z,13284.00
2019-04-21T12:53:21.491Z,13356.00
2019-04-21T12:54:21.650Z,13456.00
2019-04-21T12:55:23.999Z,13532.00
2019-04-21T12:56:21.362Z,13652.00
2019-04-21T12:57:21.556Z,13784.00
2019-04-21T12:58:21.539Z,13844.00
2019-04-21T12:59:21.354Z,13912.00
2019-04-21T13:00:22.729Z,14024.00
2019-04-21T13:01:21.287Z,14156.00
2019-04-21T13:02:21.957Z,14280.00
2019-04-21T13:03:23.099Z,14396.00
2019-04-21T13:04:21.844Z,14440.00
2019-04-21T13:05:21.956Z,14540.00
2019-04-21T13:06:21.474Z,14624.00
2019-04-21T13:07:21.629Z,14672.00
2019-04-21T13:08:21.765Z,14728.00
2019-04-21T13:09:22.249Z,14764.00
2019-04-21T13:10:22.232Z,14728.00
2019-04-21T13:11:21.542Z,14724.00
2019-04-21T13:12:21.123Z,14696.00
2019-04-21T13:13:22.009Z,14688.00
2019-04-21T13:14:22.081Z,14688.00
2019-04-21T13:15:21.866Z,14672.00
2019-04-21T13:16:21.232Z,14700.00
2019-04-21T13:17:21.472Z,14720.00
2019-04-21T13:18:21.037Z,14752.00
2019-04-21T13:19:21.099Z,14772.00
2019-04-21T13:20:21.154Z,14772.00
2019-04-21T13:21:22.311Z,14776.00
2019-04-21T13:22:21.708Z,14820.00
2019-04-21T13:23:20.963Z,14928.00
2019-04-21T13:24:22.014Z,15036.00
2019-04-21T13:25:20.933Z,15164.00
2019-04-21T13:26:29.663Z,15224.00
2019-04-21T13:27:20.904Z,15332.00
2019-04-21T13:28:20.917Z,15436.00
2019-04-21T13:29:20.874Z,15432.00
2019-04-21T13:30:22.237Z,15484.00
2019-04-21T13:31:20.951Z,15500.00
2019-04-21T13:32:20.834Z,15480.00
2019-04-21T13:33:21.049Z,15304.00
2019-04-21T13:34:22.063Z,15168.00
2019-04-21T13:35:21.216Z,15088.00
2019-04-21T13:36:21.336Z,14984.00
2019-04-21T13:37:21.476Z,14908.00
2019-04-21T13:38:30.108Z,14780.00
2019-04-21T13:40:34.193Z,14580.00
2019-04-21T13:41:32.572Z,14516.00
2019-04-21T13:42:26.751Z,14456.00
2019-04-21T13:43:21.040Z,14500.00
2019-04-21T13:44:21.324Z,14420.00